Time;durP1;ratioP1;P1;durP2;ratioP2;P2;SDS_P1;SDS_P2;PMS_P1;PMS_P2;Temp;Humidity;BMP_temperature;BMP_pressure;BME280_temperature;BME280_humidity;BME280_pressure;Samples;Min_cycle;Max_cycle;Signal;HPM_P1;HPM_P2
2022/04/14 00:02:15;;;;;;;10.07;9.07;;;;;;;;;;5093742;28;20448;-83
2022/04/14 00:04:44;;;;;;;14.70;10.47;;;;;;;;;;5094049;28;20477;-84
2022/04/14 00:07:11;;;;;;;10.00;9.00;;;;;;;;;;5094123;28;20465;-81
2022/04/14 00:09:38;;;;;;;9.33;8.43;;;;;;;;;;5095195;28;20481;-82
2022/04/14 00:12:06;;;;;;;11.30;8.43;;;;;;;;;;5095579;28;20447;-82
2022/04/14 00:14:33;;;;;;;8.80;7.67;;;;;;;;;;5091428;28;20456;-80
2022/04/14 00:17:00;;;;;;;9.43;8.03;;;;;;;;;;5090410;28;20999;-79
2022/04/14 00:19:27;;;;;;;13.93;9.67;;;;;;;;;;5092361;28;20766;-81
2022/04/14 00:21:56;;;;;;;11.60;9.00;;;;;;;;;;5092883;28;20472;-81
2022/04/14 00:24:23;;;;;;;13.10;9.73;;;;;;;;;;5093064;28;20526;-83
2022/04/14 00:26:50;;;;;;;8.63;7.73;;;;;;;;;;5093623;28;20477;-83
2022/04/14 00:29:17;;;;;;;11.87;10.50;;;;;;;;;;5092766;28;20463;-80
2022/04/14 00:31:44;;;;;;;12.27;9.20;;;;;;;;;;5094794;28;20484;-82
2022/04/14 00:34:12;;;;;;;12.30;10.90;;;;;;;;;;5093973;28;20596;-82
2022/04/14 00:36:39;;;;;;;11.87;9.87;;;;;;;;;;5091513;28;20703;-84
2022/04/14 00:39:09;;;;;;;11.47;8.80;;;;;;;;;;5090299;28;20457;-84
2022/04/14 00:41:37;;;;;;;10.77;9.20;;;;;;;;;;5091867;28;20449;-83
2022/04/14 00:44:04;;;;;;;12.47;10.10;;;;;;;;;;5092599;28;20448;-83
2022/04/14 00:46:31;;;;;;;14.40;9.27;;;;;;;;;;5092689;28;20468;-83
2022/04/14 00:48:58;;;;;;;11.17;8.97;;;;;;;;;;5096217;28;20470;-81
2022/04/14 00:51:25;;;;;;;12.03;9.63;;;;;;;;;;5094911;28;20484;-82
2022/04/14 00:53:53;;;;;;;14.10;10.20;;;;;;;;;;5097366;28;20459;-80
2022/04/14 00:56:21;;;;;;;12.57;9.90;;;;;;;;;;5100583;28;20446;-82
2022/04/14 00:58:48;;;;;;;14.03;10.57;;;;;;;;;;5092085;28;20456;-83
2022/04/14 01:01:16;;;;;;;17.13;12.07;;;;;;;;;;5090204;28;20473;-81
2022/04/14 01:03:45;;;;;;;14.40;12.20;;;;;;;;;;5090612;28;20454;-83
2022/04/14 01:06:15;;;;;;;14.73;12.83;;;;;;;;;;5091076;28;20539;-81
2022/04/14 01:09:16;;;;;;;13.10;10.80;;;;;;;;;;5092100;28;20472;-82
2022/04/14 01:11:32;;;;;;;14.43;12.03;;;;;;;;;;5091181;28;20465;-83
2022/04/14 01:13:59;;;;;;;15.53;13.00;;;;;;;;;;5092535;28;20433;-80
2022/04/14 01:16:26;;;;;;;14.73;11.67;;;;;;;;;;5093569;28;20449;-80
2022/04/14 01:18:53;;;;;;;17.30;13.57;;;;;;;;;;5093994;28;20487;-84
2022/04/14 01:21:21;;;;;;;16.00;12.43;;;;;;;;;;5091619;28;20439;-81
2022/04/14 01:23:50;;;;;;;18.80;14.23;;;;;;;;;;5089656;28;20526;-83
2022/04/14 01:26:17;;;;;;;16.73;13.90;;;;;;;;;;5090638;28;20572;-82
2022/04/14 01:28:45;;;;;;;18.33;13.93;;;;;;;;;;5091646;28;20474;-85
2022/04/14 01:31:12;;;;;;;18.87;13.77;;;;;;;;;;5091639;28;21028;-80
2022/04/14 01:33:39;;;;;;;17.00;13.20;;;;;;;;;;5092095;28;20437;-82
2022/04/14 01:36:06;;;;;;;17.83;13.87;;;;;;;;;;5092445;28;20454;-79
2022/04/14 01:38:34;;;;;;;21.83;16.57;;;;;;;;;;5092738;28;20514;-81
2022/04/14 01:41:02;;;;;;;19.63;15.50;;;;;;;;;;5093730;28;20491;-82
2022/04/14 01:43:30;;;;;;;20.70;15.63;;;;;;;;;;5092079;28;20451;-82
2022/04/14 01:45:57;;;;;;;17.20;13.43;;;;;;;;;;5089332;28;20443;-81
2022/04/14 01:48:24;;;;;;;26.07;17.77;;;;;;;;;;5089433;28;20464;-83
2022/04/14 01:50:51;;;;;;;24.60;17.63;;;;;;;;;;5091503;28;20515;-85
2022/04/14 01:53:18;;;;;;;22.53;17.47;;;;;;;;;;5091244;28;20860;-82
2022/04/14 01:55:46;;;;;;;26.60;18.47;;;;;;;;;;5091661;28;20444;-81
2022/04/14 01:58:14;;;;;;;22.30;17.00;;;;;;;;;;5091307;28;20836;-81
2022/04/14 02:00:41;;;;;;;24.90;18.43;;;;;;;;;;5092076;28;20446;-84
2022/04/14 02:03:08;;;;;;;24.37;19.23;;;;;;;;;;5093356;28;20444;-82
2022/04/14 02:05:35;;;;;;;22.77;17.80;;;;;;;;;;5092886;28;20806;-82
2022/04/14 02:08:03;;;;;;;24.10;18.60;;;;;;;;;;5088631;28;20452;-82
2022/04/14 02:10:30;;;;;;;25.57;19.63;;;;;;;;;;5089505;28;20474;-85
2022/04/14 02:12:58;;;;;;;28.13;20.70;;;;;;;;;;5090693;28;20455;-84
2022/04/14 02:15:26;;;;;;;26.00;19.33;;;;;;;;;;5090859;28;20445;-86
2022/04/14 02:17:54;;;;;;;23.83;19.40;;;;;;;;;;5090864;28;20464;-82
2022/04/14 02:20:21;;;;;;;26.57;20.03;;;;;;;;;;5091505;28;20436;-80
2022/04/14 02:22:48;;;;;;;27.60;21.17;;;;;;;;;;5091519;28;20464;-84
2022/04/14 02:25:15;;;;;;;28.00;20.43;;;;;;;;;;5092633;28;20452;-80
2022/04/14 02:27:42;;;;;;;26.17;20.90;;;;;;;;;;5092950;28;20464;-81
2022/04/14 02:30:10;;;;;;;32.97;26.00;;;;;;;;;;5089215;28;20794;-81
2022/04/14 02:32:38;;;;;;;29.00;23.20;;;;;;;;;;5087900;28;21290;-80
2022/04/14 02:35:06;;;;;;;26.80;21.33;;;;;;;;;;5090168;28;20466;-79
2022/04/14 02:37:33;;;;;;;30.77;22.77;;;;;;;;;;5090515;28;20470;-78
2022/04/14 02:40:00;;;;;;;28.87;21.40;;;;;;;;;;5090968;28;20444;-84
2022/04/14 02:42:27;;;;;;;28.73;21.50;;;;;;;;;;5091040;28;20804;-85
2022/04/14 02:44:54;;;;;;;27.97;22.40;;;;;;;;;;5090521;28;20448;-84
2022/04/14 02:47:21;;;;;;;33.30;22.90;;;;;;;;;;5092678;28;20439;-82
2022/04/14 02:49:50;;;;;;;24.53;20.20;;;;;;;;;;5092896;28;20793;-81
2022/04/14 02:52:17;;;;;;;27.43;21.23;;;;;;;;;;5089716;28;20472;-85
2022/04/14 02:54:44;;;;;;;30.13;23.30;;;;;;;;;;5088377;28;20693;-84
2022/04/14 02:57:11;;;;;;;28.57;22.20;;;;;;;;;;5089194;28;20452;-84
2022/04/14 02:59:39;;;;;;;25.33;19.97;;;;;;;;;;5090599;28;20501;-85
2022/04/14 03:02:06;;;;;;;23.97;18.80;;;;;;;;;;5090748;28;20435;-81
2022/04/14 03:04:33;;;;;;;25.90;20.70;;;;;;;;;;5090498;28;20446;-83
2022/04/14 03:07:02;;;;;;;25.40;20.23;;;;;;;;;;5091126;28;20450;-84
2022/04/14 03:09:29;;;;;;;27.63;21.10;;;;;;;;;;5091416;28;21007;-79
2022/04/14 03:11:56;;;;;;;25.80;19.00;;;;;;;;;;5092520;28;20832;-81
2022/04/14 03:14:23;;;;;;;26.27;20.90;;;;;;;;;;5090804;28;20441;-81
2022/04/14 03:16:50;;;;;;;28.50;20.80;;;;;;;;;;5087545;28;20444;-82
2022/04/14 03:19:18;;;;;;;26.23;20.40;;;;;;;;;;5088630;28;20809;-80
2022/04/14 03:21:46;;;;;;;26.60;21.00;;;;;;;;;;5090427;28;20443;-83
2022/04/14 03:24:14;;;;;;;26.87;19.60;;;;;;;;;;5090279;28;20451;-87
2022/04/14 03:26:41;;;;;;;28.60;23.20;;;;;;;;;;5090511;28;20421;-83
2022/04/14 03:29:09;;;;;;;26.40;20.60;;;;;;;;;;5090906;28;20794;-81
2022/04/14 03:31:36;;;;;;;23.93;19.97;;;;;;;;;;5090609;28;20506;-83
2022/04/14 03:34:03;;;;;;;28.63;19.43;;;;;;;;;;5092537;28;20443;-81
2022/04/14 03:36:30;;;;;;;27.30;21.50;;;;;;;;;;5091047;28;20497;-84
2022/04/14 03:39:00;;;;;;;24.77;20.10;;;;;;;;;;5087481;28;20463;-83
2022/04/14 03:41:29;;;;;;;28.57;21.50;;;;;;;;;;5088448;28;20436;-85
2022/04/14 03:43:57;;;;;;;24.53;19.00;;;;;;;;;;5090014;28;20439;-81
2022/04/14 03:46:24;;;;;;;25.83;20.30;;;;;;;;;;5089875;28;20538;-82
2022/04/14 03:48:51;;;;;;;31.00;22.70;;;;;;;;;;5090355;28;20464;-85
2022/04/14 03:51:18;;;;;;;26.10;20.60;;;;;;;;;;5090705;28;20475;-83
2022/04/14 03:53:46;;;;;;;27.40;20.53;;;;;;;;;;5090621;28;20463;-87
2022/04/14 03:56:13;;;;;;;26.77;21.30;;;;;;;;;;5092016;28;20458;-82
2022/04/14 03:58:41;;;;;;;28.93;20.60;;;;;;;;;;5091100;28;20452;-83
2022/04/14 04:01:08;;;;;;;26.30;21.20;;;;;;;;;;5087536;28;20428;-81
2022/04/14 04:03:36;;;;;;;25.57;20.40;;;;;;;;;;5088260;28;20921;-82
2022/04/14 04:06:03;;;;;;;27.90;20.50;;;;;;;;;;5089188;28;20455;-84
2022/04/14 04:08:30;;;;;;;27.23;22.53;;;;;;;;;;5091054;28;20463;-80
2022/04/14 04:10:57;;;;;;;27.13;21.17;;;;;;;;;;5093579;28;20486;-81
2022/04/14 04:13:24;;;;;;;34.27;24.70;;;;;;;;;;5094226;28;20513;-81
2022/04/14 04:15:53;;;;;;;33.40;24.47;;;;;;;;;;5094053;28;20805;-88
2022/04/14 04:18:20;;;;;;;29.40;23.90;;;;;;;;;;5095556;28;20470;-87
2022/04/14 04:20:48;;;;;;;27.97;22.27;;;;;;;;;;5095312;28;20440;-80
2022/04/14 04:23:15;;;;;;;27.80;21.60;;;;;;;;;;5090669;28;20486;-82
2022/04/14 04:25:42;;;;;;;26.23;19.83;;;;;;;;;;5091131;28;20435;-82
2022/04/14 04:28:09;;;;;;;27.57;20.17;;;;;;;;;;5093101;28;20467;-82
2022/04/14 04:30:36;;;;;;;26.63;22.37;;;;;;;;;;5093135;28;20794;-81
2022/04/14 04:33:10;;;;;;;30.53;23.37;;;;;;;;;;5090772;28;20466;-82
2022/04/14 04:35:37;;;;;;;34.83;27.20;;;;;;;;;;5088080;28;20442;-81
2022/04/14 04:38:05;;;;;;;34.17;25.63;;;;;;;;;;5093255;28;20483;-82
2022/04/14 04:40:32;;;;;;;32.30;23.67;;;;;;;;;;5095073;28;20932;-83
2022/04/14 04:42:59;;;;;;;30.53;23.07;;;;;;;;;;5095259;28;20808;-80
2022/04/14 04:45:26;;;;;;;28.73;23.00;;;;;;;;;;5091459;28;20442;-82
2022/04/14 04:47:53;;;;;;;29.50;21.77;;;;;;;;;;5090544;28;20463;-83
2022/04/14 04:50:22;;;;;;;27.30;22.07;;;;;;;;;;5092151;28;20514;-84
2022/04/14 04:52:49;;;;;;;33.70;25.40;;;;;;;;;;5092328;28;20486;-82
2022/04/14 04:55:16;;;;;;;37.83;28.43;;;;;;;;;;5092450;28;20440;-79
2022/04/14 04:57:43;;;;;;;28.90;22.63;;;;;;;;;;5093074;28;20479;-84
2022/04/14 05:00:12;;;;;;;32.63;24.33;;;;;;;;;;5092483;28;20440;-81
2022/04/14 05:02:39;;;;;;;30.10;22.00;;;;;;;;;;5094443;28;20488;-83
2022/04/14 05:05:06;;;;;;;28.73;21.27;;;;;;;;;;5094489;28;20443;-83
2022/04/14 05:07:35;;;;;;;27.70;21.13;;;;;;;;;;5090007;28;21235;-81
2022/04/14 05:10:02;;;;;;;29.50;23.33;;;;;;;;;;5090275;28;20435;-77
2022/04/14 05:12:29;;;;;;;38.87;29.00;;;;;;;;;;5091159;28;20475;-78
2022/04/14 05:14:57;;;;;;;31.60;26.23;;;;;;;;;;5091948;28;20452;-78
2022/04/14 05:17:24;;;;;;;32.80;25.70;;;;;;;;;;5092162;28;20443;-78
2022/04/14 05:19:51;;;;;;;33.03;26.23;;;;;;;;;;5091763;28;20443;-80
2022/04/14 05:22:18;;;;;;;32.80;24.67;;;;;;;;;;5092179;28;20435;-80
2022/04/14 05:24:46;;;;;;;34.57;26.57;;;;;;;;;;5093247;28;20460;-78
2022/04/14 05:27:13;;;;;;;37.13;26.20;;;;;;;;;;5094113;28;20928;-79
2022/04/14 05:29:41;;;;;;;37.20;27.70;;;;;;;;;;5091768;28;20463;-79
2022/04/14 05:32:08;;;;;;;35.30;28.10;;;;;;;;;;5089033;28;20484;-79
2022/04/14 05:34:35;;;;;;;31.83;25.50;;;;;;;;;;5090152;28;20951;-82
2022/04/14 05:37:02;;;;;;;32.80;24.60;;;;;;;;;;5091765;28;20446;-87
2022/04/14 05:39:29;;;;;;;37.73;25.67;;;;;;;;;;5092661;28;20851;-81
2022/04/14 05:41:58;;;;;;;30.60;24.53;;;;;;;;;;5092675;28;20439;-84
2022/04/14 05:44:25;;;;;;;37.40;26.23;;;;;;;;;;5092364;28;20451;-84
2022/04/14 05:46:52;;;;;;;34.47;24.17;;;;;;;;;;5092823;28;20458;-83
2022/04/14 05:49:20;;;;;;;36.40;26.70;;;;;;;;;;5093385;28;20459;-86
2022/04/14 05:51:48;;;;;;;37.00;25.50;;;;;;;;;;5092407;28;20490;-82
2022/04/14 05:54:15;;;;;;;37.40;26.97;;;;;;;;;;5089185;28;20447;-85
2022/04/14 05:56:42;;;;;;;39.63;26.20;;;;;;;;;;5089402;28;20437;-78
2022/04/14 05:59:16;;;;;;;38.87;27.60;;;;;;;;;;5090269;28;20875;-80
2022/04/14 06:01:43;;;;;;;37.50;27.60;;;;;;;;;;5094426;28;20940;-83
2022/04/14 06:04:11;;;;;;;39.47;28.33;;;;;;;;;;5094766;28;20474;-81
2022/04/14 06:06:38;;;;;;;41.27;27.40;;;;;;;;;;5093848;28;20433;-83
2022/04/14 06:09:05;;;;;;;39.93;30.03;;;;;;;;;;5093602;28;20518;-84
2022/04/14 06:11:32;;;;;;;40.80;29.70;;;;;;;;;;5094106;28;20478;-82
2022/04/14 06:13:59;;;;;;;41.63;29.23;;;;;;;;;;5093583;28;20451;-83
2022/04/14 06:16:28;;;;;;;39.20;28.87;;;;;;;;;;5088803;28;20446;-84
2022/04/14 06:18:55;;;;;;;40.20;28.90;;;;;;;;;;5088736;28;20469;-81
2022/04/14 06:21:22;;;;;;;45.67;32.50;;;;;;;;;;5090757;28;20444;-81
2022/04/14 06:23:49;;;;;;;41.70;30.17;;;;;;;;;;5090955;28;20530;-81
2022/04/14 06:26:16;;;;;;;50.77;34.57;;;;;;;;;;5091857;28;20549;-84
2022/04/14 06:28:46;;;;;;;47.00;31.53;;;;;;;;;;5092266;28;20460;-81
2022/04/14 06:31:14;;;;;;;38.80;29.50;;;;;;;;;;5090066;28;20545;-82
2022/04/14 06:33:44;;;;;;;45.70;31.00;;;;;;;;;;5092952;28;20451;-79
2022/04/14 06:36:11;;;;;;;43.33;30.40;;;;;;;;;;5092871;28;20509;-79
2022/04/14 06:38:39;;;;;;;49.13;33.77;;;;;;;;;;5089288;28;20455;-82
2022/04/14 06:41:06;;;;;;;44.43;31.77;;;;;;;;;;5088315;28;20447;-78
2022/04/14 06:43:34;;;;;;;47.87;32.40;;;;;;;;;;5089584;28;20436;-77
2022/04/14 06:46:03;;;;;;;48.50;33.90;;;;;;;;;;5090537;28;20506;-81
2022/04/14 06:48:31;;;;;;;44.70;31.30;;;;;;;;;;5090604;28;20465;-82
2022/04/14 06:50:59;;;;;;;46.40;31.73;;;;;;;;;;5090996;28;20864;-77
2022/04/14 06:53:27;;;;;;;40.80;29.47;;;;;;;;;;5089632;28;20835;-81
2022/04/14 06:55:54;;;;;;;38.30;28.70;;;;;;;;;;5092275;28;20777;-82
2022/04/14 06:58:21;;;;;;;42.20;30.60;;;;;;;;;;5092513;28;20467;-82
2022/04/14 07:00:49;;;;;;;41.10;29.27;;;;;;;;;;5090767;28;20446;-83
2022/04/14 07:03:16;;;;;;;37.27;29.27;;;;;;;;;;5088166;28;20428;-79
2022/04/14 07:05:43;;;;;;;43.10;29.17;;;;;;;;;;5089105;28;20431;-80
2022/04/14 07:08:11;;;;;;;35.27;27.63;;;;;;;;;;5090120;28;20827;-80
2022/04/14 07:10:38;;;;;;;37.57;29.00;;;;;;;;;;5090187;28;20782;-81
2022/04/14 07:13:06;;;;;;;39.13;27.20;;;;;;;;;;5090379;28;21074;-80
2022/04/14 07:15:33;;;;;;;36.80;29.37;;;;;;;;;;5091714;28;20450;-80
2022/04/14 07:18:01;;;;;;;35.70;28.60;;;;;;;;;;5093456;28;20475;-82
2022/04/14 07:20:30;;;;;;;34.73;27.37;;;;;;;;;;5094601;28;20447;-81
2022/04/14 07:22:58;;;;;;;39.80;31.07;;;;;;;;;;5092103;28;20890;-80
2022/04/14 07:25:28;;;;;;;40.63;28.73;;;;;;;;;;5088105;28;20505;-82
2022/04/14 07:27:55;;;;;;;37.70;26.67;;;;;;;;;;5088645;28;20495;-79
2022/04/14 07:30:23;;;;;;;39.27;28.80;;;;;;;;;;5089639;28;20454;-81
2022/04/14 07:32:51;;;;;;;30.63;24.93;;;;;;;;;;5089626;28;21073;-81
2022/04/14 07:35:20;;;;;;;34.10;24.10;;;;;;;;;;5090056;28;20440;-81
2022/04/14 07:37:58;;;;;;;28.93;22.23;;;;;;;;;;5090569;28;20471;-81
2022/04/14 07:40:27;;;;;;;29.50;21.93;;;;;;;;;;5090956;28;20461;-83
2022/04/14 07:42:56;;;;;;;28.00;21.67;;;;;;;;;;5094506;28;20475;-81
2022/04/14 07:45:23;;;;;;;29.37;21.43;;;;;;;;;;5095038;28;20426;-82
2022/04/14 07:47:50;;;;;;;26.57;21.07;;;;;;;;;;5091795;28;20650;-80
2022/04/14 07:50:20;;;;;;;31.10;23.17;;;;;;;;;;5091321;28;20449;-81
2022/04/14 07:52:48;;;;;;;27.03;20.83;;;;;;;;;;5093043;28;20609;-81
2022/04/14 07:55:19;;;;;;;27.07;22.63;;;;;;;;;;5093648;28;20444;-81
2022/04/14 07:57:47;;;;;;;30.13;24.30;;;;;;;;;;5093670;28;20797;-80
2022/04/14 08:00:15;;;;;;;29.13;20.47;;;;;;;;;;5094188;28;20430;-81
2022/04/14 08:02:50;;;;;;;21.87;18.87;;;;;;;;;;5093999;28;20813;-80
2022/04/14 08:05:17;;;;;;;23.40;20.10;;;;;;;;;;5094619;28;20420;-81
2022/04/14 08:07:44;;;;;;;25.27;19.00;;;;;;;;;;5095564;28;20474;-82
2022/04/14 08:10:12;;;;;;;26.27;20.87;;;;;;;;;;5092659;28;20439;-80
2022/04/14 08:12:39;;;;;;;21.13;17.53;;;;;;;;;;5091134;28;20474;-81
2022/04/14 08:15:10;;;;;;;21.23;17.30;;;;;;;;;;5092084;28;20443;-81
2022/04/14 08:17:38;;;;;;;17.00;13.23;;;;;;;;;;5093260;28;20475;-77
2022/04/14 08:20:05;;;;;;;16.43;14.00;;;;;;;;;;5093287;28;20943;-82
2022/04/14 08:22:44;;;;;;;15.00;13.10;;;;;;;;;;5093773;28;20439;-79
2022/04/14 08:25:11;;;;;;;15.97;12.87;;;;;;;;;;5093234;28;20947;-82
2022/04/14 08:27:38;;;;;;;13.40;11.97;;;;;;;;;;5094919;28;20449;-79
2022/04/14 08:30:06;;;;;;;15.50;13.90;;;;;;;;;;5095183;28;20439;-79
2022/04/14 08:32:35;;;;;;;18.23;15.10;;;;;;;;;;5092619;28;20514;-83
2022/04/14 08:35:02;;;;;;;15.33;12.63;;;;;;;;;;5090652;28;20518;-82
2022/04/14 08:37:29;;;;;;;17.83;14.87;;;;;;;;;;5091394;28;20439;-81
2022/04/14 08:39:57;;;;;;;22.87;18.10;;;;;;;;;;5092557;28;20514;-79
2022/04/14 08:42:26;;;;;;;24.00;18.00;;;;;;;;;;5092615;28;20432;-83
2022/04/14 08:44:57;;;;;;;24.87;19.57;;;;;;;;;;5093147;28;20439;-77
2022/04/14 08:47:25;;;;;;;26.77;21.43;;;;;;;;;;5093270;28;20454;-81
2022/04/14 08:49:54;;;;;;;25.57;20.27;;;;;;;;;;5093859;28;20808;-81
2022/04/14 08:52:22;;;;;;;23.33;18.50;;;;;;;;;;5094515;28;20877;-80
2022/04/14 08:54:50;;;;;;;20.83;18.00;;;;;;;;;;5092466;28;20447;-80
2022/04/14 08:57:18;;;;;;;26.23;18.73;;;;;;;;;;5090101;28;20804;-81
2022/04/14 08:59:47;;;;;;;20.73;15.87;;;;;;;;;;5090556;28;20513;-81
2022/04/14 09:02:15;;;;;;;21.13;15.87;;;;;;;;;;5092162;28;20541;-80
2022/04/14 09:04:43;;;;;;;21.80;16.20;;;;;;;;;;5091120;28;20543;-81
2022/04/14 09:07:12;;;;;;;25.50;20.27;;;;;;;;;;5092678;28;20444;-83
2022/04/14 09:09:39;;;;;;;27.33;19.40;;;;;;;;;;5091766;28;20474;-82
2022/04/14 09:12:07;;;;;;;24.20;20.17;;;;;;;;;;5091998;28;20495;-82
2022/04/14 09:14:34;;;;;;;24.20;18.93;;;;;;;;;;5094551;28;20443;-83
2022/04/14 09:17:03;;;;;;;16.57;14.80;;;;;;;;;;5093006;28;20443;-84
2022/04/14 09:19:31;;;;;;;24.63;20.33;;;;;;;;;;5090249;28;20524;-81
2022/04/14 09:21:59;;;;;;;23.63;19.73;;;;;;;;;;5090117;28;20435;-77
2022/04/14 09:24:40;;;;;;;21.60;18.73;;;;;;;;;;5091465;28;20455;-81
2022/04/14 09:27:07;;;;;;;22.10;19.50;;;;;;;;;;5091746;28;20439;-83
2022/04/14 09:29:35;;;;;;;28.63;22.43;;;;;;;;;;5091741;28;20459;-80
2022/04/14 09:32:05;;;;;;;21.87;16.97;;;;;;;;;;5091339;28;20471;-84
2022/04/14 09:34:51;;;;;;;22.23;18.63;;;;;;;;;;5092653;28;20470;-79
2022/04/14 09:37:18;;;;;;;22.40;17.73;;;;;;;;;;5092464;28;20442;-81
2022/04/14 09:40:02;;;;;;;19.20;17.17;;;;;;;;;;5093567;28;20495;-81
2022/04/14 09:42:31;;;;;;;21.40;16.30;;;;;;;;;;5088654;28;20442;-81
2022/04/14 09:45:17;;;;;;;18.77;15.73;;;;;;;;;;5089443;28;20447;-82
2022/04/14 09:47:45;;;;;;;26.30;17.73;;;;;;;;;;5069451;28;20463;-85
2022/04/14 09:50:27;;;;;;;18.70;15.67;;;;;;;;;;5071077;28;20444;-82
2022/04/14 09:52:57;;;;;;;20.07;17.57;;;;;;;;;;5069899;28;20480;-82
2022/04/14 09:55:24;;;;;;;18.50;15.10;;;;;;;;;;5071557;28;20445;-83
2022/04/14 09:58:06;;;;;;;20.80;18.60;;;;;;;;;;5074553;28;20484;-88
2022/04/14 10:00:39;;;;;;;22.70;19.20;;;;;;;;;;5084031;28;20443;-87
2022/04/14 10:03:09;;;;;;;20.97;18.40;;;;;;;;;;5089321;28;20428;-87
2022/04/14 10:05:37;;;;;;;26.13;18.63;;;;;;;;;;5090500;28;20443;-77
2022/04/14 10:08:07;;;;;;;21.10;16.13;;;;;;;;;;5091131;28;20466;-79
2022/04/14 10:10:34;;;;;;;20.57;16.77;;;;;;;;;;5091418;28;20471;-84
2022/04/14 10:13:05;;;;;;;25.00;20.80;;;;;;;;;;5092218;28;20475;-85
2022/04/14 10:15:32;;;;;;;20.90;17.83;;;;;;;;;;5091093;28;20450;-82
2022/04/14 10:18:02;;;;;;;21.00;16.70;;;;;;;;;;5093354;28;20951;-83
2022/04/14 10:20:29;;;;;;;16.63;14.80;;;;;;;;;;5093443;28;20450;-83
2022/04/14 10:22:57;;;;;;;14.13;11.83;;;;;;;;;;5091113;28;20436;-84
2022/04/14 10:25:25;;;;;;;14.23;11.93;;;;;;;;;;5089420;28;20431;-86
2022/04/14 10:27:54;;;;;;;14.53;12.07;;;;;;;;;;5092279;28;20455;-83
2022/04/14 10:30:21;;;;;;;16.87;15.07;;;;;;;;;;5092241;28;20451;-86
2022/04/14 10:32:48;;;;;;;15.20;13.70;;;;;;;;;;5091407;28;20479;-81
2022/04/14 10:35:17;;;;;;;13.03;9.93;;;;;;;;;;5091245;28;20971;-84
2022/04/14 10:37:47;;;;;;;7.80;6.50;;;;;;;;;;5091188;28;20490;-83
2022/04/14 10:40:15;;;;;;;13.40;11.90;;;;;;;;;;5092077;28;20460;-82
2022/04/14 10:42:47;;;;;;;12.87;11.43;;;;;;;;;;5092666;28;20940;-83
2022/04/14 10:45:17;;;;;;;15.93;14.33;;;;;;;;;;5091230;28;20451;-85
2022/04/14 10:47:59;;;;;;;20.03;15.63;;;;;;;;;;5088268;28;20455;-80
2022/04/14 10:50:28;;;;;;;18.20;16.17;;;;;;;;;;5088015;28;20959;-78
2022/04/14 10:53:04;;;;;;;18.03;14.53;;;;;;;;;;5090462;28;20478;-81
2022/04/14 10:55:35;;;;;;;14.83;13.30;;;;;;;;;;5090267;28;20439;-83
2022/04/14 10:58:02;;;;;;;18.30;16.47;;;;;;;;;;5090735;28;20955;-76
2022/04/14 11:00:37;;;;;;;14.47;12.97;;;;;;;;;;5091144;28;20439;-78
2022/04/14 11:03:06;;;;;;;13.07;11.80;;;;;;;;;;5090395;28;20477;-78
2022/04/14 11:05:48;;;;;;;11.37;9.70;;;;;;;;;;5092833;28;20446;-82
2022/04/14 11:08:25;;;;;;;13.17;11.80;;;;;;;;;;5089600;28;20947;-78
2022/04/14 11:11:07;;;;;;;14.63;12.57;;;;;;;;;;5088445;28;20434;-81
2022/04/14 11:13:49;;;;;;;17.23;13.43;;;;;;;;;;5088783;28;20467;-80
2022/04/14 11:16:31;;;;;;;13.23;11.50;;;;;;;;;;5088954;28;20457;-77
2022/04/14 11:19:13;;;;;;;13.30;11.93;;;;;;;;;;5093998;28;20455;-82
2022/04/14 11:22:00;;;;;;;13.00;10.30;;;;;;;;;;5094270;28;20446;-77
2022/04/14 11:24:35;;;;;;;14.70;13.20;;;;;;;;;;5094625;28;20725;-75
2022/04/14 11:27:11;;;;;;;17.07;14.67;;;;;;;;;;5096449;28;20434;-80
2022/04/14 11:29:38;;;;;;;14.90;13.50;;;;;;;;;;5096308;28;20484;-81
2022/04/14 11:32:06;;;;;;;15.30;11.90;;;;;;;;;;5092922;28;20471;-78
2022/04/14 11:34:33;;;;;;;14.47;12.73;;;;;;;;;;5091603;28;20833;-77
2022/04/14 11:37:01;;;;;;;14.07;12.60;;;;;;;;;;5093214;28;20442;-81
2022/04/14 11:39:29;;;;;;;12.37;11.27;;;;;;;;;;5094084;28;20915;-77
2022/04/14 11:42:03;;;;;;;13.50;12.00;;;;;;;;;;5093983;28;20457;-80
2022/04/14 11:44:32;;;;;;;9.50;8.60;;;;;;;;;;5094586;28;20448;-79
2022/04/14 11:47:01;;;;;;;12.97;11.23;;;;;;;;;;5093914;28;20944;-77
2022/04/14 11:49:29;;;;;;;12.33;9.57;;;;;;;;;;5094646;28;20448;-77
2022/04/14 11:51:56;;;;;;;10.77;8.63;;;;;;;;;;5095837;28;20453;-76
2022/04/14 11:54:24;;;;;;;7.87;7.07;;;;;;;;;;5092656;28;20486;-76
2022/04/14 11:56:52;;;;;;;9.73;7.83;;;;;;;;;;5090410;28;20436;-77
2022/04/14 11:59:30;;;;;;;7.83;6.70;;;;;;;;;;5091286;28;20971;-77
2022/04/14 12:01:59;;;;;;;9.03;6.17;;;;;;;;;;5093959;28;20446;-76
2022/04/14 12:04:26;;;;;;;8.77;6.77;;;;;;;;;;5092109;28;20442;-77
2022/04/14 12:06:54;;;;;;;7.23;6.53;;;;;;;;;;5093841;28;20447;-75
2022/04/14 12:09:22;;;;;;;9.43;7.67;;;;;;;;;;5094243;28;20489;-79
2022/04/14 12:11:49;;;;;;;10.33;8.93;;;;;;;;;;5095081;28;20465;-77
2022/04/14 12:14:16;;;;;;;7.87;7.07;;;;;;;;;;5095154;28;20481;-78
2022/04/14 12:16:53;;;;;;;9.17;7.20;;;;;;;;;;5095244;28;20442;-78
2022/04/14 12:19:20;;;;;;;7.43;6.53;;;;;;;;;;5090772;28;20462;-78
2022/04/14 12:22:02;;;;;;;6.20;5.30;;;;;;;;;;5091735;28;21030;-78
2022/04/14 12:24:29;;;;;;;8.97;6.63;;;;;;;;;;5092009;28;20435;-77
2022/04/14 12:26:57;;;;;;;6.90;6.20;;;;;;;;;;5093403;28;20929;-77
2022/04/14 12:29:24;;;;;;;7.87;7.07;;;;;;;;;;5092448;28;20547;-77
2022/04/14 12:31:55;;;;;;;8.73;7.90;;;;;;;;;;5093594;28;20467;-77
2022/04/14 12:34:23;;;;;;;8.80;7.00;;;;;;;;;;5094688;28;20479;-79
2022/04/14 12:36:50;;;;;;;6.57;5.37;;;;;;;;;;5094110;28;20450;-83
2022/04/14 12:39:19;;;;;;;11.83;7.77;;;;;;;;;;5095014;28;20474;-81
2022/04/14 12:41:46;;;;;;;7.47;6.70;;;;;;;;;;5090412;28;20470;-83
2022/04/14 12:44:18;;;;;;;9.00;6.37;;;;;;;;;;5090834;28;20430;-82
2022/04/14 12:46:47;;;;;;;10.53;8.30;;;;;;;;;;5093396;28;20451;-87
2022/04/14 12:49:19;;;;;;;7.40;6.70;;;;;;;;;;5091124;28;20458;-82
2022/04/14 12:51:54;;;;;;;11.73;8.40;;;;;;;;;;5092608;28;20652;-78
2022/04/14 12:54:23;;;;;;;10.90;8.97;;;;;;;;;;5091965;28;20952;-82
2022/04/14 12:57:05;;;;;;;7.23;6.53;;;;;;;;;;5093138;28;20485;-82
2022/04/14 12:59:34;;;;;;;9.50;8.50;;;;;;;;;;5093202;28;20504;-83
2022/04/14 13:02:06;;;;;;;9.77;8.63;;;;;;;;;;5094234;28;20435;-84
2022/04/14 13:04:36;;;;;;;9.77;8.77;;;;;;;;;;5089950;28;20431;-82
2022/04/14 13:07:05;;;;;;;8.43;7.50;;;;;;;;;;5090099;28;20435;-84
2022/04/14 13:09:32;;;;;;;6.97;6.30;;;;;;;;;;5071772;28;20922;-82
2022/04/14 13:12:00;;;;;;;9.30;6.40;;;;;;;;;;5071934;28;20441;-81
2022/04/14 13:14:27;;;;;;;7.10;6.40;;;;;;;;;;5072186;28;20483;-79
2022/04/14 13:16:55;;;;;;;11.70;6.67;;;;;;;;;;5072315;28;20444;-77
2022/04/14 13:19:23;;;;;;;13.40;7.70;;;;;;;;;;5078302;28;20957;-80
2022/04/14 13:21:51;;;;;;;7.43;5.97;;;;;;;;;;5094229;28;20437;-79
2022/04/14 13:24:19;;;;;;;6.53;5.70;;;;;;;;;;5094167;28;20436;-79
2022/04/14 13:32:25;;;;;;;6.40;5.20;;;;;;;;;;4797025;28;20895;-77
